Cumbernauld, United Kingdom
Current Conditions -  °F | °C
As of 3:50 AM on Friday 19 Dec 2014 (Local Time) from EGPF Reporting Station
Light Rain Light Rain  
Wind Chill: 34°   Ceiling: 1600
Heat Index: 41°   Visibility: 6mi
Dew Point: 37°   Wind: 13mph
Humidity: 87%   Direction: 260°W
Pressure: 29.5"   Gusts: NA
Location:  55.95°N, 3.99°W
Report Text: EGPF 190350Z AUTO 26011KT 9999 -RA FEW009/// BKN016/// //////CB 05/03 Q0999 RERA
Loading
Personal Weather Stations






























Interactive Weather Map New forecast layout! Learn more

10-Day Weather Forecast

Advertisements
Track Severe Weather on mobile